sensor_id;sensor_type;location;lat;lon;timestamp;temperature;humidity
29571;DHT22;16814;52.118;11.436;2024-02-23T00:00:38;10.80;99.90
29571;DHT22;16814;52.118;11.436;2024-02-23T00:03:03;10.80;99.90
29571;DHT22;16814;52.118;11.436;2024-02-23T00:05:29;10.80;99.90
29571;DHT22;16814;52.118;11.436;2024-02-23T00:07:54;10.70;99.90
29571;DHT22;16814;52.118;11.436;2024-02-23T00:10:20;10.70;99.90
29571;DHT22;16814;52.118;11.436;2024-02-23T00:12:46;10.50;99.90
29571;DHT22;16814;52.118;11.436;2024-02-23T00:15:13;10.50;99.90
29571;DHT22;16814;52.118;11.436;2024-02-23T00:17:38;10.40;99.90
29571;DHT22;16814;52.118;11.436;2024-02-23T00:20:08;10.30;99.90
29571;DHT22;16814;52.118;11.436;2024-02-23T00:22:36;10.20;99.90
29571;DHT22;16814;52.118;11.436;2024-02-23T00:25:01;10.10;99.90
29571;DHT22;16814;52.118;11.436;2024-02-23T00:27:27;10.00;99.90
29571;DHT22;16814;52.118;11.436;2024-02-23T00:29:52;10.00;99.90
29571;DHT22;16814;52.118;11.436;2024-02-23T00:32:18;9.90;99.90
29571;DHT22;16814;52.118;11.436;2024-02-23T00:34:43;10.00;99.90
29571;DHT22;16814;52.118;11.436;2024-02-23T00:37:09;9.80;99.90
29571;DHT22;16814;52.118;11.436;2024-02-23T00:39:34;9.70;99.90
29571;DHT22;16814;52.118;11.436;2024-02-23T00:42:01;9.70;99.90
29571;DHT22;16814;52.118;11.436;2024-02-23T00:44:27;9.60;99.90
29571;DHT22;16814;52.118;11.436;2024-02-23T00:46:52;9.50;99.90
29571;DHT22;16814;52.118;11.436;2024-02-23T00:49:18;9.50;99.90
29571;DHT22;16814;52.118;11.436;2024-02-23T00:51:43;9.40;99.90
29571;DHT22;16814;52.118;11.436;2024-02-23T00:54:09;9.40;99.90
29571;DHT22;16814;52.118;11.436;2024-02-23T00:56:34;9.40;99.90
29571;DHT22;16814;52.118;11.436;2024-02-23T00:59:00;9.30;99.90
29571;DHT22;16814;52.118;11.436;2024-02-23T01:01:26;9.20;99.90
29571;DHT22;16814;52.118;11.436;2024-02-23T01:03:54;9.30;99.90
29571;DHT22;16814;52.118;11.436;2024-02-23T01:06:20;9.20;99.90
29571;DHT22;16814;52.118;11.436;2024-02-23T01:08:45;9.10;99.90
29571;DHT22;16814;52.118;11.436;2024-02-23T01:11:11;9.10;99.90
29571;DHT22;16814;52.118;11.436;2024-02-23T01:13:36;9.00;99.90
29571;DHT22;16814;52.118;11.436;2024-02-23T01:16:02;9.00;99.90
29571;DHT22;16814;52.118;11.436;2024-02-23T01:18:28;9.00;99.90
29571;DHT22;16814;52.118;11.436;2024-02-23T01:20:53;8.90;99.90
29571;DHT22;16814;52.118;11.436;2024-02-23T01:23:19;9.00;99.90
29571;DHT22;16814;52.118;11.436;2024-02-23T01:25:44;8.90;99.90
29571;DHT22;16814;52.118;11.436;2024-02-23T01:28:10;8.90;99.90
29571;DHT22;16814;52.118;11.436;2024-02-23T01:30:35;8.80;99.90
29571;DHT22;16814;52.118;11.436;2024-02-23T01:33:02;8.80;99.90
29571;DHT22;16814;52.118;11.436;2024-02-23T01:35:28;8.70;99.90
29571;DHT22;16814;52.118;11.436;2024-02-23T01:37:54;8.70;99.90
29571;DHT22;16814;52.118;11.436;2024-02-23T01:40:19;8.70;99.90
29571;DHT22;16814;52.118;11.436;2024-02-23T01:42:45;8.60;99.90
29571;DHT22;16814;52.118;11.436;2024-02-23T01:45:10;8.70;99.90
29571;DHT22;16814;52.118;11.436;2024-02-23T01:47:36;8.60;99.90
29571;DHT22;16814;52.118;11.436;2024-02-23T01:50:02;8.60;99.90
29571;DHT22;16814;52.118;11.436;2024-02-23T01:52:28;8.60;99.90
29571;DHT22;16814;52.118;11.436;2024-02-23T01:54:55;8.60;99.90
29571;DHT22;16814;52.118;11.436;2024-02-23T01:57:22;8.60;99.90
29571;DHT22;16814;52.118;11.436;2024-02-23T01:59:48;8.60;99.90
29571;DHT22;16814;52.118;11.436;2024-02-23T02:02:14;8.50;99.90
29571;DHT22;16814;52.118;11.436;2024-02-23T02:04:39;8.50;99.90
29571;DHT22;16814;52.118;11.436;2024-02-23T02:07:05;8.50;99.90
29571;DHT22;16814;52.118;11.436;2024-02-23T02:09:31;8.50;99.90
29571;DHT22;16814;52.118;11.436;2024-02-23T02:11:56;8.50;99.90
29571;DHT22;16814;52.118;11.436;2024-02-23T02:14:22;8.50;99.90
29571;DHT22;16814;52.118;11.436;2024-02-23T02:16:47;8.50;99.90
29571;DHT22;16814;52.118;11.436;2024-02-23T02:19:14;8.50;99.90
29571;DHT22;16814;52.118;11.436;2024-02-23T02:21:40;8.50;99.90
29571;DHT22;16814;52.118;11.436;2024-02-23T02:24:07;8.40;99.90
29571;DHT22;16814;52.118;11.436;2024-02-23T02:26:32;8.40;99.90
29571;DHT22;16814;52.118;11.436;2024-02-23T02:28:58;8.40;99.90
29571;DHT22;16814;52.118;11.436;2024-02-23T02:31:23;8.40;99.90
29571;DHT22;16814;52.118;11.436;2024-02-23T02:33:49;8.40;99.90
29571;DHT22;16814;52.118;11.436;2024-02-23T02:36:14;8.40;99.90
29571;DHT22;16814;52.118;11.436;2024-02-23T02:38:40;8.30;99.90
29571;DHT22;16814;52.118;11.436;2024-02-23T02:41:06;8.30;99.90
29571;DHT22;16814;52.118;11.436;2024-02-23T02:43:32;8.30;99.90
29571;DHT22;16814;52.118;11.436;2024-02-23T02:45:58;8.20;99.90
29571;DHT22;16814;52.118;11.436;2024-02-23T02:48:24;8.20;99.90
29571;DHT22;16814;52.118;11.436;2024-02-23T02:50:50;8.20;99.90
29571;DHT22;16814;52.118;11.436;2024-02-23T02:53:16;8.20;99.90
29571;DHT22;16814;52.118;11.436;2024-02-23T02:55:42;8.10;99.90
29571;DHT22;16814;52.118;11.436;2024-02-23T02:58:08;8.10;99.90
29571;DHT22;16814;52.118;11.436;2024-02-23T03:00:34;8.10;99.90
29571;DHT22;16814;52.118;11.436;2024-02-23T03:03:00;8.00;99.90
29571;DHT22;16814;52.118;11.436;2024-02-23T03:05:25;8.00;99.90
29571;DHT22;16814;52.118;11.436;2024-02-23T03:07:51;8.00;99.90
29571;DHT22;16814;52.118;11.436;2024-02-23T03:10:17;8.00;99.90
29571;DHT22;16814;52.118;11.436;2024-02-23T03:12:42;8.00;99.90
29571;DHT22;16814;52.118;11.436;2024-02-23T03:15:08;8.00;99.90
29571;DHT22;16814;52.118;11.436;2024-02-23T03:17:35;8.00;99.90
29571;DHT22;16814;52.118;11.436;2024-02-23T03:20:01;7.90;99.90
29571;DHT22;16814;52.118;11.436;2024-02-23T03:22:27;7.90;99.90
29571;DHT22;16814;52.118;11.436;2024-02-23T03:24:52;7.90;99.90
29571;DHT22;16814;52.118;11.436;2024-02-23T03:27:19;7.80;99.90
29571;DHT22;16814;52.118;11.436;2024-02-23T03:29:44;7.70;99.90
29571;DHT22;16814;52.118;11.436;2024-02-23T03:32:10;7.70;99.90
29571;DHT22;16814;52.118;11.436;2024-02-23T03:34:35;7.60;99.90
29571;DHT22;16814;52.118;11.436;2024-02-23T03:37:02;7.50;99.90
29571;DHT22;16814;52.118;11.436;2024-02-23T03:39:28;7.40;99.90
29571;DHT22;16814;52.118;11.436;2024-02-23T03:41:54;7.30;99.90
29571;DHT22;16814;52.118;11.436;2024-02-23T03:44:19;7.20;99.90
29571;DHT22;16814;52.118;11.436;2024-02-23T03:46:45;7.10;99.90
29571;DHT22;16814;52.118;11.436;2024-02-23T03:49:10;7.10;99.90
29571;DHT22;16814;52.118;11.436;2024-02-23T03:51:37;7.00;99.90
29571;DHT22;16814;52.118;11.436;2024-02-23T03:54:05;7.00;99.90
29571;DHT22;16814;52.118;11.436;2024-02-23T03:56:38;6.90;99.90
29571;DHT22;16814;52.118;11.436;2024-02-23T03:59:04;6.90;99.90
29571;DHT22;16814;52.118;11.436;2024-02-23T04:01:30;6.80;99.90
29571;DHT22;16814;52.118;11.436;2024-02-23T04:03:55;6.80;99.90
29571;DHT22;16814;52.118;11.436;2024-02-23T04:06:21;6.80;99.90
29571;DHT22;16814;52.118;11.436;2024-02-23T04:08:46;6.70;99.90
29571;DHT22;16814;52.118;11.436;2024-02-23T04:11:13;6.70;99.90
29571;DHT22;16814;52.118;11.436;2024-02-23T04:13:38;6.70;99.90
29571;DHT22;16814;52.118;11.436;2024-02-23T04:16:04;6.60;99.90
29571;DHT22;16814;52.118;11.436;2024-02-23T04:18:29;6.60;99.90
29571;DHT22;16814;52.118;11.436;2024-02-23T04:20:56;6.60;99.90
29571;DHT22;16814;52.118;11.436;2024-02-23T04:23:22;6.50;99.90
29571;DHT22;16814;52.118;11.436;2024-02-23T04:25:47;6.50;99.90
29571;DHT22;16814;52.118;11.436;2024-02-23T04:28:13;6.50;99.90
29571;DHT22;16814;52.118;11.436;2024-02-23T04:30:41;6.50;99.90
29571;DHT22;16814;52.118;11.436;2024-02-23T04:33:07;6.40;99.90
29571;DHT22;16814;52.118;11.436;2024-02-23T04:35:32;6.50;99.90
29571;DHT22;16814;52.118;11.436;2024-02-23T04:37:58;6.40;99.90
29571;DHT22;16814;52.118;11.436;2024-02-23T04:40:23;6.40;99.90
29571;DHT22;16814;52.118;11.436;2024-02-23T04:42:49;6.40;99.90
29571;DHT22;16814;52.118;11.436;2024-02-23T04:45:14;6.40;99.90
29571;DHT22;16814;52.118;11.436;2024-02-23T04:47:40;6.30;99.90
29571;DHT22;16814;52.118;11.436;2024-02-23T04:50:06;6.30;99.90
29571;DHT22;16814;52.118;11.436;2024-02-23T04:52:32;6.30;99.90
29571;DHT22;16814;52.118;11.436;2024-02-23T04:54:57;6.30;99.90
29571;DHT22;16814;52.118;11.436;2024-02-23T04:57:23;6.30;99.90
29571;DHT22;16814;52.118;11.436;2024-02-23T04:59:48;6.20;99.90
29571;DHT22;16814;52.118;11.436;2024-02-23T05:02:14;6.20;99.90
29571;DHT22;16814;52.118;11.436;2024-02-23T05:04:40;6.20;99.90
29571;DHT22;16814;52.118;11.436;2024-02-23T05:07:05;6.20;99.90
29571;DHT22;16814;52.118;11.436;2024-02-23T05:09:31;6.20;99.90
29571;DHT22;16814;52.118;11.436;2024-02-23T05:11:57;6.20;99.90
29571;DHT22;16814;52.118;11.436;2024-02-23T05:14:23;6.10;99.90
29571;DHT22;16814;52.118;11.436;2024-02-23T05:16:48;6.10;99.90
29571;DHT22;16814;52.118;11.436;2024-02-23T05:19:14;6.10;99.90
29571;DHT22;16814;52.118;11.436;2024-02-23T05:21:39;6.10;99.90
29571;DHT22;16814;52.118;11.436;2024-02-23T05:24:05;6.10;99.90
29571;DHT22;16814;52.118;11.436;2024-02-23T05:26:31;6.10;99.90
29571;DHT22;16814;52.118;11.436;2024-02-23T05:28:57;6.10;99.90
29571;DHT22;16814;52.118;11.436;2024-02-23T05:31:52;6.00;99.90
29571;DHT22;16814;52.118;11.436;2024-02-23T05:34:18;6.10;99.90
29571;DHT22;16814;52.118;11.436;2024-02-23T05:36:45;6.00;99.90
29571;DHT22;16814;52.118;11.436;2024-02-23T05:39:11;6.00;99.90
29571;DHT22;16814;52.118;11.436;2024-02-23T05:41:38;6.00;99.90
29571;DHT22;16814;52.118;11.436;2024-02-23T05:44:04;6.00;99.90
29571;DHT22;16814;52.118;11.436;2024-02-23T05:46:35;6.00;99.90
29571;DHT22;16814;52.118;11.436;2024-02-23T05:49:01;6.00;99.90
29571;DHT22;16814;52.118;11.436;2024-02-23T05:51:28;5.90;99.90
29571;DHT22;16814;52.118;11.436;2024-02-23T05:53:54;5.90;99.90
29571;DHT22;16814;52.118;11.436;2024-02-23T05:56:20;5.90;99.90
29571;DHT22;16814;52.118;11.436;2024-02-23T05:58:46;5.90;99.90
29571;DHT22;16814;52.118;11.436;2024-02-23T06:01:11;5.90;99.90
29571;DHT22;16814;52.118;11.436;2024-02-23T06:03:37;5.80;99.90
29571;DHT22;16814;52.118;11.436;2024-02-23T06:06:07;5.80;99.90
29571;DHT22;16814;52.118;11.436;2024-02-23T06:08:33;5.80;99.90
29571;DHT22;16814;52.118;11.436;2024-02-23T06:10:59;5.70;99.90
29571;DHT22;16814;52.118;11.436;2024-02-23T06:13:25;5.70;99.90
29571;DHT22;16814;52.118;11.436;2024-02-23T06:15:51;5.70;99.90
29571;DHT22;16814;52.118;11.436;2024-02-23T06:18:16;5.70;99.90
29571;DHT22;16814;52.118;11.436;2024-02-23T06:20:42;5.70;99.90
29571;DHT22;16814;52.118;11.436;2024-02-23T06:23:07;5.70;99.90
29571;DHT22;16814;52.118;11.436;2024-02-23T06:25:33;5.70;99.90
29571;DHT22;16814;52.118;11.436;2024-02-23T06:27:58;5.70;99.90
29571;DHT22;16814;52.118;11.436;2024-02-23T06:30:24;5.70;99.90
29571;DHT22;16814;52.118;11.436;2024-02-23T06:32:49;5.70;99.90
29571;DHT22;16814;52.118;11.436;2024-02-23T06:35:15;5.70;99.90
29571;DHT22;16814;52.118;11.436;2024-02-23T06:37:41;5.60;99.90
29571;DHT22;16814;52.118;11.436;2024-02-23T06:40:06;5.70;99.90
29571;DHT22;16814;52.118;11.436;2024-02-23T06:42:33;5.70;99.90
29571;DHT22;16814;52.118;11.436;2024-02-23T06:44:58;5.70;99.90
29571;DHT22;16814;52.118;11.436;2024-02-23T06:47:24;5.70;99.90
29571;DHT22;16814;52.118;11.436;2024-02-23T06:49:50;5.80;99.90
29571;DHT22;16814;52.118;11.436;2024-02-23T06:52:16;5.80;99.90
29571;DHT22;16814;52.118;11.436;2024-02-23T06:54:42;5.80;99.90
29571;DHT22;16814;52.118;11.436;2024-02-23T06:57:07;5.80;99.90
29571;DHT22;16814;52.118;11.436;2024-02-23T06:59:33;5.70;99.90
29571;DHT22;16814;52.118;11.436;2024-02-23T07:01:59;5.70;99.90
29571;DHT22;16814;52.118;11.436;2024-02-23T07:04:24;5.70;99.90
29571;DHT22;16814;52.118;11.436;2024-02-23T07:06:50;5.70;99.90
29571;DHT22;16814;52.118;11.436;2024-02-23T07:09:16;5.60;99.90
29571;DHT22;16814;52.118;11.436;2024-02-23T07:11:42;5.60;99.90
29571;DHT22;16814;52.118;11.436;2024-02-23T07:14:09;5.60;99.90
29571;DHT22;16814;52.118;11.436;2024-02-23T07:16:38;5.60;99.90
29571;DHT22;16814;52.118;11.436;2024-02-23T07:19:07;5.50;99.90
29571;DHT22;16814;52.118;11.436;2024-02-23T07:21:33;5.50;99.90
29571;DHT22;16814;52.118;11.436;2024-02-23T07:23:59;5.60;99.90
29571;DHT22;16814;52.118;11.436;2024-02-23T07:26:26;5.70;99.90
29571;DHT22;16814;52.118;11.436;2024-02-23T07:28:53;5.70;99.90
29571;DHT22;16814;52.118;11.436;2024-02-23T07:31:19;5.70;99.90
29571;DHT22;16814;52.118;11.436;2024-02-23T07:33:44;5.80;99.90
29571;DHT22;16814;52.118;11.436;2024-02-23T07:36:14;5.80;99.90
29571;DHT22;16814;52.118;11.436;2024-02-23T07:38:40;5.80;99.90
29571;DHT22;16814;52.118;11.436;2024-02-23T07:41:05;5.90;99.90
29571;DHT22;16814;52.118;11.436;2024-02-23T07:43:31;5.90;99.90
29571;DHT22;16814;52.118;11.436;2024-02-23T07:45:56;5.90;99.90
29571;DHT22;16814;52.118;11.436;2024-02-23T07:48:22;6.00;99.90
29571;DHT22;16814;52.118;11.436;2024-02-23T07:50:47;6.00;99.90
29571;DHT22;16814;52.118;11.436;2024-02-23T07:53:13;6.00;99.90
29571;DHT22;16814;52.118;11.436;2024-02-23T07:55:38;6.00;99.90
29571;DHT22;16814;52.118;11.436;2024-02-23T07:58:04;5.90;99.90
29571;DHT22;16814;52.118;11.436;2024-02-23T08:00:29;5.90;99.90
29571;DHT22;16814;52.118;11.436;2024-02-23T08:02:55;5.80;99.90
29571;DHT22;16814;52.118;11.436;2024-02-23T08:05:25;6.00;99.90
29571;DHT22;16814;52.118;11.436;2024-02-23T08:07:51;6.00;99.90
29571;DHT22;16814;52.118;11.436;2024-02-23T08:10:16;6.40;99.90
29571;DHT22;16814;52.118;11.436;2024-02-23T08:12:42;6.10;99.90
29571;DHT22;16814;52.118;11.436;2024-02-23T08:15:08;6.10;99.90
29571;DHT22;16814;52.118;11.436;2024-02-23T08:17:33;6.10;99.90
29571;DHT22;16814;52.118;11.436;2024-02-23T08:19:59;6.20;99.90
29571;DHT22;16814;52.118;11.436;2024-02-23T08:22:24;6.20;99.90
29571;DHT22;16814;52.118;11.436;2024-02-23T08:24:50;6.30;99.90
29571;DHT22;16814;52.118;11.436;2024-02-23T08:27:15;6.30;99.90
29571;DHT22;16814;52.118;11.436;2024-02-23T08:29:41;6.40;99.90
29571;DHT22;16814;52.118;11.436;2024-02-23T08:32:07;6.40;99.90
29571;DHT22;16814;52.118;11.436;2024-02-23T08:34:33;6.40;99.90
29571;DHT22;16814;52.118;11.436;2024-02-23T08:37:00;6.40;99.90
29571;DHT22;16814;52.118;11.436;2024-02-23T08:39:25;6.50;99.90
29571;DHT22;16814;52.118;11.436;2024-02-23T08:41:52;6.50;99.90
29571;DHT22;16814;52.118;11.436;2024-02-23T08:44:18;6.70;99.90
29571;DHT22;16814;52.118;11.436;2024-02-23T08:46:43;6.80;99.90
29571;DHT22;16814;52.118;11.436;2024-02-23T08:49:09;6.90;99.90
29571;DHT22;16814;52.118;11.436;2024-02-23T08:51:34;7.00;99.90
29571;DHT22;16814;52.118;11.436;2024-02-23T08:54:00;7.10;99.90
29571;DHT22;16814;52.118;11.436;2024-02-23T08:56:30;7.20;99.90
29571;DHT22;16814;52.118;11.436;2024-02-23T08:58:57;7.30;99.90
29571;DHT22;16814;52.118;11.436;2024-02-23T09:01:23;7.50;99.90
29571;DHT22;16814;52.118;11.436;2024-02-23T09:03:49;7.60;99.90
29571;DHT22;16814;52.118;11.436;2024-02-23T09:06:14;7.70;99.90
29571;DHT22;16814;52.118;11.436;2024-02-23T09:08:40;7.70;99.90
29571;DHT22;16814;52.118;11.436;2024-02-23T09:11:06;7.70;99.90
29571;DHT22;16814;52.118;11.436;2024-02-23T09:13:32;7.60;99.90
29571;DHT22;16814;52.118;11.436;2024-02-23T09:15:57;7.60;99.90
29571;DHT22;16814;52.118;11.436;2024-02-23T09:18:23;7.70;99.90
29571;DHT22;16814;52.118;11.436;2024-02-23T09:20:48;7.80;99.90
29571;DHT22;16814;52.118;11.436;2024-02-23T09:23:14;7.90;99.90
29571;DHT22;16814;52.118;11.436;2024-02-23T09:25:40;8.00;99.90
29571;DHT22;16814;52.118;11.436;2024-02-23T09:28:05;8.00;99.90
29571;DHT22;16814;52.118;11.436;2024-02-23T09:30:31;7.90;99.90
29571;DHT22;16814;52.118;11.436;2024-02-23T09:32:56;7.90;99.90
29571;DHT22;16814;52.118;11.436;2024-02-23T09:35:22;7.90;99.90
29571;DHT22;16814;52.118;11.436;2024-02-23T09:37:47;7.80;99.90
29571;DHT22;16814;52.118;11.436;2024-02-23T09:40:14;7.70;99.90
29571;DHT22;16814;52.118;11.436;2024-02-23T09:42:40;7.70;99.90
29571;DHT22;16814;52.118;11.436;2024-02-23T09:45:07;7.80;99.90
29571;DHT22;16814;52.118;11.436;2024-02-23T09:47:34;7.80;99.90
29571;DHT22;16814;52.118;11.436;2024-02-23T09:50:01;7.80;99.90
29571;DHT22;16814;52.118;11.436;2024-02-23T09:52:29;7.80;99.90
29571;DHT22;16814;52.118;11.436;2024-02-23T09:54:54;7.80;99.90
29571;DHT22;16814;52.118;11.436;2024-02-23T09:57:22;7.90;99.90
29571;DHT22;16814;52.118;11.436;2024-02-23T09:59:48;8.00;99.90
29571;DHT22;16814;52.118;11.436;2024-02-23T10:02:17;8.10;99.90
29571;DHT22;16814;52.118;11.436;2024-02-23T10:04:43;8.90;99.90
29571;DHT22;16814;52.118;11.436;2024-02-23T10:07:09;8.40;99.90
29571;DHT22;16814;52.118;11.436;2024-02-23T10:09:35;8.70;99.90
29571;DHT22;16814;52.118;11.436;2024-02-23T10:12:04;8.80;99.90
29571;DHT22;16814;52.118;11.436;2024-02-23T10:14:30;9.00;99.90
29571;DHT22;16814;52.118;11.436;2024-02-23T10:16:55;9.20;99.90
29571;DHT22;16814;52.118;11.436;2024-02-23T10:19:21;9.10;99.90
29571;DHT22;16814;52.118;11.436;2024-02-23T10:21:47;9.10;99.90
29571;DHT22;16814;52.118;11.436;2024-02-23T10:24:16;9.20;99.90
29571;DHT22;16814;52.118;11.436;2024-02-23T10:26:42;9.10;99.90
29571;DHT22;16814;52.118;11.436;2024-02-23T10:29:08;9.00;99.90
29571;DHT22;16814;52.118;11.436;2024-02-23T10:31:36;9.10;99.90
29571;DHT22;16814;52.118;11.436;2024-02-23T10:34:07;9.20;99.90
29571;DHT22;16814;52.118;11.436;2024-02-23T10:36:42;9.40;99.90
29571;DHT22;16814;52.118;11.436;2024-02-23T10:39:08;9.60;99.90
29571;DHT22;16814;52.118;11.436;2024-02-23T10:41:35;9.80;99.90
29571;DHT22;16814;52.118;11.436;2024-02-23T10:44:03;9.80;99.90
29571;DHT22;16814;52.118;11.436;2024-02-23T10:46:31;9.90;99.90
29571;DHT22;16814;52.118;11.436;2024-02-23T10:48:58;9.90;99.90
29571;DHT22;16814;52.118;11.436;2024-02-23T10:51:25;10.00;99.90
29571;DHT22;16814;52.118;11.436;2024-02-23T10:53:52;10.10;99.90
29571;DHT22;16814;52.118;11.436;2024-02-23T10:56:18;10.10;99.90
29571;DHT22;16814;52.118;11.436;2024-02-23T10:58:45;10.20;99.90
29571;DHT22;16814;52.118;11.436;2024-02-23T11:01:12;10.20;99.90
29571;DHT22;16814;52.118;11.436;2024-02-23T11:03:41;10.30;99.90
29571;DHT22;16814;52.118;11.436;2024-02-23T11:06:08;10.20;99.90
29571;DHT22;16814;52.118;11.436;2024-02-23T11:08:34;10.20;99.90
29571;DHT22;16814;52.118;11.436;2024-02-23T11:11:08;10.20;99.90
29571;DHT22;16814;52.118;11.436;2024-02-23T11:13:37;10.20;99.90
29571;DHT22;16814;52.118;11.436;2024-02-23T11:16:04;10.10;99.90
29571;DHT22;16814;52.118;11.436;2024-02-23T11:18:30;10.20;99.90
29571;DHT22;16814;52.118;11.436;2024-02-23T11:21:03;10.10;99.90
29571;DHT22;16814;52.118;11.436;2024-02-23T11:23:43;10.20;99.90
29571;DHT22;16814;52.118;11.436;2024-02-23T11:26:10;10.20;99.90
29571;DHT22;16814;52.118;11.436;2024-02-23T11:28:49;10.30;99.90
29571;DHT22;16814;52.118;11.436;2024-02-23T11:31:20;10.50;99.90
29571;DHT22;16814;52.118;11.436;2024-02-23T11:33:49;10.60;99.90
29571;DHT22;16814;52.118;11.436;2024-02-23T11:38:48;10.60;99.90
29571;DHT22;16814;52.118;11.436;2024-02-23T11:41:14;10.60;99.90
29571;DHT22;16814;52.118;11.436;2024-02-23T11:43:41;10.50;99.90
29571;DHT22;16814;52.118;11.436;2024-02-23T11:46:07;10.60;99.90
29571;DHT22;16814;52.118;11.436;2024-02-23T11:48:32;10.60;99.90
29571;DHT22;16814;52.118;11.436;2024-02-23T11:50:58;10.70;99.90
29571;DHT22;16814;52.118;11.436;2024-02-23T11:53:24;10.70;99.90
29571;DHT22;16814;52.118;11.436;2024-02-23T11:55:51;10.70;99.90
29571;DHT22;16814;52.118;11.436;2024-02-23T11:58:17;10.60;99.90
29571;DHT22;16814;52.118;11.436;2024-02-23T12:00:43;10.60;99.90
29571;DHT22;16814;52.118;11.436;2024-02-23T12:03:09;10.70;99.90
29571;DHT22;16814;52.118;11.436;2024-02-23T12:05:35;10.70;99.90
29571;DHT22;16814;52.118;11.436;2024-02-23T12:08:01;10.60;99.90
29571;DHT22;16814;52.118;11.436;2024-02-23T12:10:27;10.60;99.90
29571;DHT22;16814;52.118;11.436;2024-02-23T12:12:54;10.60;99.90
29571;DHT22;16814;52.118;11.436;2024-02-23T12:15:19;10.60;99.90
29571;DHT22;16814;52.118;11.436;2024-02-23T12:17:49;10.60;99.90
29571;DHT22;16814;52.118;11.436;2024-02-23T12:20:14;10.40;99.90
29571;DHT22;16814;52.118;11.436;2024-02-23T12:22:41;10.40;99.90
29571;DHT22;16814;52.118;11.436;2024-02-23T12:25:07;10.40;99.90
29571;DHT22;16814;52.118;11.436;2024-02-23T12:27:32;10.40;99.90
29571;DHT22;16814;52.118;11.436;2024-02-23T12:29:58;10.40;99.90
29571;DHT22;16814;52.118;11.436;2024-02-23T12:32:25;10.40;99.90
29571;DHT22;16814;52.118;11.436;2024-02-23T12:34:50;10.50;99.90
29571;DHT22;16814;52.118;11.436;2024-02-23T12:37:21;10.60;99.90
29571;DHT22;16814;52.118;11.436;2024-02-23T12:39:48;10.70;99.90
29571;DHT22;16814;52.118;11.436;2024-02-23T12:42:13;10.70;99.90
29571;DHT22;16814;52.118;11.436;2024-02-23T12:44:39;10.70;99.90
29571;DHT22;16814;52.118;11.436;2024-02-23T12:47:04;10.90;99.90
29571;DHT22;16814;52.118;11.436;2024-02-23T12:49:31;11.00;99.90
29571;DHT22;16814;52.118;11.436;2024-02-23T12:51:56;11.00;99.90
29571;DHT22;16814;52.118;11.436;2024-02-23T12:54:22;10.90;99.90
29571;DHT22;16814;52.118;11.436;2024-02-23T12:56:48;10.90;99.90
29571;DHT22;16814;52.118;11.436;2024-02-23T12:59:13;10.90;99.90
29571;DHT22;16814;52.118;11.436;2024-02-23T13:01:39;10.70;99.90
29571;DHT22;16814;52.118;11.436;2024-02-23T13:04:05;10.60;99.90
29571;DHT22;16814;52.118;11.436;2024-02-23T13:06:38;10.40;99.90
29571;DHT22;16814;52.118;11.436;2024-02-23T13:09:05;10.20;99.90
29571;DHT22;16814;52.118;11.436;2024-02-23T13:11:31;10.20;99.90
29571;DHT22;16814;52.118;11.436;2024-02-23T13:13:57;10.10;99.90
29571;DHT22;16814;52.118;11.436;2024-02-23T13:16:22;10.10;99.90
29571;DHT22;16814;52.118;11.436;2024-02-23T13:18:48;10.10;99.90
29571;DHT22;16814;52.118;11.436;2024-02-23T13:21:14;10.00;99.90
29571;DHT22;16814;52.118;11.436;2024-02-23T13:23:39;9.90;99.90
29571;DHT22;16814;52.118;11.436;2024-02-23T13:26:07;9.90;99.90
29571;DHT22;16814;52.118;11.436;2024-02-23T13:28:32;10.00;99.90
29571;DHT22;16814;52.118;11.436;2024-02-23T13:30:58;10.20;99.90
29571;DHT22;16814;52.118;11.436;2024-02-23T13:33:23;10.20;99.90
29571;DHT22;16814;52.118;11.436;2024-02-23T13:35:49;10.10;99.90
29571;DHT22;16814;52.118;11.436;2024-02-23T13:38:15;10.10;99.90
29571;DHT22;16814;52.118;11.436;2024-02-23T13:40:40;10.10;99.90
29571;DHT22;16814;52.118;11.436;2024-02-23T13:43:06;10.00;99.90
29571;DHT22;16814;52.118;11.436;2024-02-23T13:45:32;10.00;99.90
29571;DHT22;16814;52.118;11.436;2024-02-23T13:47:59;10.10;99.90
29571;DHT22;16814;52.118;11.436;2024-02-23T13:50:26;10.10;99.90
29571;DHT22;16814;52.118;11.436;2024-02-23T13:52:51;10.20;99.90
29571;DHT22;16814;52.118;11.436;2024-02-23T13:55:17;10.10;99.90
29571;DHT22;16814;52.118;11.436;2024-02-23T13:57:43;10.10;99.90
29571;DHT22;16814;52.118;11.436;2024-02-23T14:00:09;10.10;99.90
29571;DHT22;16814;52.118;11.436;2024-02-23T14:02:38;10.10;99.90
29571;DHT22;16814;52.118;11.436;2024-02-23T14:05:06;10.10;99.90
29571;DHT22;16814;52.118;11.436;2024-02-23T14:07:32;10.10;99.90
29571;DHT22;16814;52.118;11.436;2024-02-23T14:09:58;10.10;99.90
29571;DHT22;16814;52.118;11.436;2024-02-23T14:12:23;10.10;99.90
29571;DHT22;16814;52.118;11.436;2024-02-23T14:14:49;10.10;99.90
29571;DHT22;16814;52.118;11.436;2024-02-23T14:17:15;10.00;99.90
29571;DHT22;16814;52.118;11.436;2024-02-23T14:19:40;10.00;99.90
29571;DHT22;16814;52.118;11.436;2024-02-23T14:22:06;10.00;99.90
29571;DHT22;16814;52.118;11.436;2024-02-23T14:24:32;9.90;99.90
29571;DHT22;16814;52.118;11.436;2024-02-23T14:26:57;9.90;99.90
29571;DHT22;16814;52.118;11.436;2024-02-23T14:29:23;9.70;99.90
29571;DHT22;16814;52.118;11.436;2024-02-23T14:31:48;9.80;99.90
29571;DHT22;16814;52.118;11.436;2024-02-23T14:34:14;9.70;99.90
29571;DHT22;16814;52.118;11.436;2024-02-23T14:36:40;9.70;99.90
29571;DHT22;16814;52.118;11.436;2024-02-23T14:39:05;9.60;99.90
29571;DHT22;16814;52.118;11.436;2024-02-23T14:41:31;9.40;99.90
29571;DHT22;16814;52.118;11.436;2024-02-23T14:43:56;9.50;99.90
29571;DHT22;16814;52.118;11.436;2024-02-23T14:46:22;9.50;99.90
29571;DHT22;16814;52.118;11.436;2024-02-23T14:48:48;9.50;99.90
29571;DHT22;16814;52.118;11.436;2024-02-23T14:51:17;9.40;99.90
29571;DHT22;16814;52.118;11.436;2024-02-23T14:53:42;9.50;99.90
29571;DHT22;16814;52.118;11.436;2024-02-23T14:56:08;9.60;99.90
29571;DHT22;16814;52.118;11.436;2024-02-23T14:58:33;9.60;99.90
29571;DHT22;16814;52.118;11.436;2024-02-23T15:00:59;9.50;99.90
29571;DHT22;16814;52.118;11.436;2024-02-23T15:03:25;9.40;99.90
29571;DHT22;16814;52.118;11.436;2024-02-23T15:05:51;9.20;99.90
29571;DHT22;16814;52.118;11.436;2024-02-23T15:08:16;9.20;99.90
29571;DHT22;16814;52.118;11.436;2024-02-23T15:10:42;9.20;99.90
29571;DHT22;16814;52.118;11.436;2024-02-23T15:13:08;9.10;99.90
29571;DHT22;16814;52.118;11.436;2024-02-23T15:15:33;9.10;99.90
29571;DHT22;16814;52.118;11.436;2024-02-23T15:18:01;8.90;99.90
29571;DHT22;16814;52.118;11.436;2024-02-23T15:20:27;8.80;99.90
29571;DHT22;16814;52.118;11.436;2024-02-23T15:22:53;8.70;99.90